createdAt,value
2023-04-15T00:02:17.993Z,84.17
2023-04-15T00:04:50.420Z,84.60
2023-04-15T00:07:20.833Z,84.09
2023-04-15T00:09:52.630Z,84.20
2023-04-15T00:12:49.352Z,84.05
2023-04-15T00:15:19.838Z,82.97
2023-04-15T00:17:54.444Z,83.12
2023-04-15T00:20:28.333Z,82.94
2023-04-15T00:22:59.519Z,81.88
2023-04-15T00:25:31.225Z,80.37
2023-04-15T00:28:01.529Z,80.15
2023-04-15T00:30:33.694Z,80.37
2023-04-15T00:33:06.818Z,79.83
2023-04-15T00:35:40.088Z,80.09
2023-04-15T00:38:11.204Z,79.53
2023-04-15T00:40:42.437Z,81.18
2023-04-15T00:43:14.424Z,80.60
2023-04-15T00:45:45.512Z,79.97
2023-04-15T00:48:18.179Z,80.02
2023-04-15T00:50:49.228Z,80.59
2023-04-15T00:53:20.900Z,78.49
2023-04-15T00:55:54.050Z,78.84
2023-04-15T00:58:26.356Z,79.78
2023-04-15T01:00:59.625Z,79.36
2023-04-15T01:03:32.396Z,79.53
2023-04-15T01:06:04.529Z,79.95
2023-04-15T01:08:35.931Z,79.97
2023-04-15T01:11:07.673Z,80.14
2023-04-15T01:13:38.766Z,77.97
2023-04-15T01:16:10.835Z,78.48
2023-04-15T01:18:41.923Z,78.53
2023-04-15T01:21:13.083Z,77.08
2023-04-15T01:23:45.349Z,78.62
2023-04-15T01:26:15.922Z,78.99
2023-04-15T01:28:47.705Z,81.61
2023-04-15T01:31:18.205Z,80.12
2023-04-15T01:33:51.104Z,80.86
2023-04-15T01:36:22.399Z,82.12
2023-04-15T01:38:57.789Z,81.57
2023-04-15T01:41:31.728Z,82.74
2023-04-15T01:44:02.133Z,82.20
2023-04-15T01:46:32.966Z,82.02
2023-04-15T01:49:04.755Z,83.22
2023-04-15T01:51:35.857Z,84.04
2023-04-15T01:54:07.207Z,82.18
2023-04-15T01:56:37.572Z,81.77
2023-04-15T01:59:08.188Z,82.42
2023-04-15T02:01:39.589Z,82.76
2023-04-15T02:04:17.480Z,83.53
2023-04-15T02:06:48.624Z,83.39
2023-04-15T02:09:20.314Z,82.46
2023-04-15T02:11:51.443Z,81.48
2023-04-15T02:14:23.699Z,82.45
2023-04-15T02:16:55.343Z,83.00
2023-04-15T02:19:27.415Z,82.68
2023-04-15T02:21:59.430Z,82.72
2023-04-15T02:24:32.567Z,82.40
2023-04-15T02:27:03.625Z,82.06
2023-04-15T02:29:34.499Z,81.43
2023-04-15T02:32:05.029Z,81.41
2023-04-15T02:34:36.674Z,81.10
2023-04-15T02:37:08.111Z,81.20
2023-04-15T02:39:39.944Z,79.82
2023-04-15T02:42:10.232Z,79.58
2023-04-15T02:44:50.080Z,79.31
2023-04-15T02:47:23.157Z,79.19
2023-04-15T02:49:53.471Z,79.25
2023-04-15T02:52:23.616Z,79.77
2023-04-15T02:54:58.864Z,80.72
2023-04-15T02:57:30.726Z,80.88
2023-04-15T03:00:12.222Z,81.08
2023-04-15T03:02:49.610Z,80.70
2023-04-15T03:05:20.227Z,80.56
2023-04-15T03:07:56.424Z,80.08
2023-04-15T03:10:27.617Z,80.22
2023-04-15T03:12:59.901Z,80.11
2023-04-15T03:15:31.085Z,80.45
2023-04-15T03:18:02.741Z,80.49
2023-04-15T03:20:36.302Z,80.86
2023-04-15T03:23:07.878Z,79.92
2023-04-15T03:25:38.922Z,79.81
2023-04-15T03:28:11.522Z,79.32
2023-04-15T03:30:41.716Z,79.47
2023-04-15T03:33:12.834Z,79.33
2023-04-15T03:35:42.979Z,78.76
2023-04-15T03:38:13.571Z,79.10
2023-04-15T03:40:43.916Z,78.57
2023-04-15T03:43:15.512Z,77.73
2023-04-15T03:45:45.848Z,77.66
2023-04-15T03:48:18.125Z,76.68
2023-04-15T03:50:50.534Z,76.52
2023-04-15T03:53:22.759Z,76.99
2023-04-15T03:55:54.362Z,76.97
2023-04-15T03:58:24.653Z,76.71
2023-04-15T04:00:54.799Z,76.29
2023-04-15T04:03:25.429Z,76.68
2023-04-15T04:05:55.676Z,76.71
2023-04-15T04:08:27.366Z,78.17
2023-04-15T04:10:57.737Z,79.79
2023-04-15T04:13:28.935Z,80.58
2023-04-15T04:15:59.197Z,81.13
2023-04-15T04:18:29.577Z,81.75
2023-04-15T04:21:01.120Z,82.02
2023-04-15T04:23:32.605Z,82.09
2023-04-15T04:26:03.029Z,82.10
2023-04-15T04:28:33.080Z,82.36
2023-04-15T04:31:04.762Z,82.47
2023-04-15T04:33:48.448Z,82.83
2023-04-15T04:36:19.353Z,82.74
2023-04-15T04:38:50.828Z,82.72
2023-04-15T04:41:21.855Z,82.61
2023-04-15T04:43:54.241Z,82.67
2023-04-15T04:46:25.262Z,82.55
2023-04-15T04:48:56.110Z,82.70
2023-04-15T04:51:26.581Z,82.80
2023-04-15T04:53:56.674Z,82.86
2023-04-15T04:56:27.102Z,83.00
2023-04-15T04:58:58.575Z,83.06
2023-04-15T05:01:29.885Z,83.04
2023-04-15T05:04:00.432Z,83.21
2023-04-15T05:06:32.896Z,83.28
2023-04-15T05:09:04.003Z,83.29
2023-04-15T05:11:34.939Z,83.49
2023-04-15T05:14:06.069Z,83.32
2023-04-15T05:16:37.853Z,83.35
2023-04-15T05:19:09.862Z,83.64
2023-04-15T05:21:40.152Z,83.50
2023-04-15T05:24:11.229Z,83.51
2023-04-15T05:26:46.996Z,83.60
2023-04-15T05:29:18.311Z,83.64
2023-04-15T05:31:49.484Z,83.59
2023-04-15T05:34:20.996Z,83.70
2023-04-15T05:36:54.279Z,83.62
2023-04-15T05:39:25.728Z,83.67
2023-04-15T05:41:56.810Z,83.55
2023-04-15T05:44:27.393Z,83.65
2023-04-15T05:46:58.340Z,83.75
2023-04-15T05:49:29.025Z,83.77
2023-04-15T05:52:01.165Z,83.68
2023-04-15T05:54:31.981Z,83.70
2023-04-15T05:57:02.391Z,83.88
2023-04-15T05:59:33.155Z,83.79
2023-04-15T06:02:05.860Z,83.76
2023-04-15T06:04:36.319Z,83.91
2023-04-15T06:07:07.182Z,83.74
2023-04-15T06:09:37.809Z,83.66
2023-04-15T06:12:13.380Z,83.68
2023-04-15T06:14:44.568Z,83.80
2023-04-15T06:17:16.405Z,83.76
2023-04-15T06:19:52.988Z,83.91
2023-04-15T06:22:29.191Z,83.84
2023-04-15T06:25:00.632Z,83.75
2023-04-15T06:27:31.540Z,83.73
2023-04-15T06:30:02.695Z,83.88
2023-04-15T06:32:35.155Z,84.10
2023-04-15T06:35:05.960Z,84.31
2023-04-15T06:37:36.375Z,84.57
2023-04-15T06:40:07.010Z,84.64
2023-04-15T06:42:39.278Z,84.49
2023-04-15T06:45:10.171Z,84.28
2023-04-15T06:47:41.036Z,84.28
2023-04-15T06:50:14.270Z,84.25
2023-04-15T06:52:44.712Z,84.09
2023-04-15T06:55:14.512Z,84.12
2023-04-15T06:57:44.718Z,83.93
2023-04-15T07:00:16.153Z,83.95
2023-04-15T07:02:47.599Z,83.76
2023-04-15T07:05:17.911Z,83.71
2023-04-15T07:07:48.067Z,83.72
2023-04-15T07:10:18.596Z,83.74
2023-04-15T07:12:49.736Z,83.60
2023-04-15T07:15:20.137Z,83.46
2023-04-15T07:17:51.002Z,83.44
2023-04-15T07:20:21.164Z,83.45
2023-04-15T07:22:51.196Z,83.35
2023-04-15T07:25:22.107Z,83.19
2023-04-15T07:27:52.842Z,83.21
2023-04-15T07:30:24.087Z,83.12
2023-04-15T07:32:54.569Z,83.19
2023-04-15T07:35:25.458Z,83.15
2023-04-15T07:37:55.633Z,83.06
2023-04-15T07:40:25.777Z,83.00
2023-04-15T07:42:57.265Z,83.08
2023-04-15T07:45:28.797Z,83.06
2023-04-15T07:47:59.440Z,83.12
2023-04-15T07:50:31.256Z,82.93
2023-04-15T07:53:02.455Z,82.91
2023-04-15T07:55:32.755Z,82.76
2023-04-15T07:58:02.781Z,82.72
2023-04-15T08:00:34.209Z,82.67
2023-04-15T08:03:05.711Z,82.78
2023-04-15T08:05:36.916Z,82.77
2023-04-15T08:08:07.870Z,82.82
2023-04-15T08:10:39.336Z,82.80
2023-04-15T08:13:10.467Z,82.67
2023-04-15T08:15:41.713Z,82.64
2023-04-15T08:18:13.461Z,82.60
2023-04-15T08:20:43.891Z,82.58
2023-04-15T08:23:15.152Z,82.57
2023-04-15T08:25:45.496Z,82.44
2023-04-15T08:28:15.524Z,82.37
2023-04-15T08:30:45.704Z,82.21
2023-04-15T08:33:16.925Z,82.15
2023-04-15T08:35:47.334Z,82.20
2023-04-15T08:38:17.377Z,82.31
2023-04-15T08:40:49.305Z,82.46
2023-04-15T08:43:30.691Z,82.65
2023-04-15T08:46:04.422Z,82.62
2023-04-15T08:48:41.847Z,82.60
2023-04-15T08:51:12.672Z,82.30
2023-04-15T08:53:43.444Z,82.28
2023-04-15T08:56:16.504Z,82.02
2023-04-15T08:58:47.598Z,82.03
2023-04-15T09:01:18.955Z,81.96
2023-04-15T09:03:52.217Z,81.96
2023-04-15T09:06:24.914Z,81.88
2023-04-15T09:08:55.991Z,81.76
2023-04-15T09:11:26.364Z,81.86
2023-04-15T09:13:56.379Z,81.81
2023-04-15T09:16:27.960Z,81.75
2023-04-15T09:18:58.296Z,81.72
2023-04-15T09:21:30.965Z,81.73
2023-04-15T09:24:03.155Z,81.76
2023-04-15T09:26:38.495Z,81.74
2023-04-15T09:29:11.458Z,81.62
2023-04-15T09:31:45.338Z,81.70
2023-04-15T09:34:16.250Z,81.62
2023-04-15T09:36:51.182Z,81.61
2023-04-15T09:39:22.545Z,81.53
2023-04-15T09:42:09.371Z,81.70
2023-04-15T09:44:39.866Z,81.65
2023-04-15T09:47:11.597Z,81.61
2023-04-15T09:49:58.393Z,81.77
2023-04-15T09:52:29.994Z,81.62
2023-04-15T09:55:03.210Z,81.62
2023-04-15T09:57:42.352Z,81.69
2023-04-15T10:00:13.469Z,81.59
2023-04-15T10:02:46.208Z,81.51
2023-04-15T10:05:19.363Z,81.43
2023-04-15T10:07:51.409Z,81.12
2023-04-15T10:10:22.099Z,81.05
2023-04-15T10:12:54.178Z,81.17
2023-04-15T10:15:29.016Z,81.07
2023-04-15T10:18:03.213Z,80.95
2023-04-15T10:20:34.654Z,80.79
2023-04-15T10:23:08.157Z,80.69
2023-04-15T10:25:40.794Z,80.69
2023-04-15T10:28:11.252Z,80.45
2023-04-15T10:30:41.737Z,80.40
2023-04-15T10:33:13.199Z,80.11
2023-04-15T10:35:44.724Z,79.96
2023-04-15T10:38:33.332Z,79.83
2023-04-15T10:41:22.948Z,79.68
2023-04-15T10:43:55.268Z,79.57
2023-04-15T10:46:43.774Z,79.28
2023-04-15T10:49:26.909Z,79.17
2023-04-15T10:52:01.514Z,75.78
2023-04-15T10:54:33.086Z,60.54
2023-04-15T10:57:03.977Z,56.10
2023-04-15T11:00:01.832Z,53.90
2023-04-15T11:02:56.000Z,53.40
2023-04-15T11:05:55.957Z,53.38
2023-04-15T11:09:01.117Z,61.33
2023-04-15T11:12:11.484Z,67.87
2023-04-15T11:14:50.254Z,69.05
2023-04-15T11:17:33.806Z,67.03
2023-04-15T11:20:05.964Z,64.99
2023-04-15T11:22:38.566Z,66.45
2023-04-15T11:25:10.508Z,67.21
2023-04-15T11:27:41.748Z,68.42
2023-04-15T11:30:26.809Z,69.56
2023-04-15T11:33:09.208Z,69.07
2023-04-15T11:35:40.537Z,69.19
2023-04-15T11:38:16.337Z,69.51
2023-04-15T11:40:47.363Z,69.32
2023-04-15T11:43:22.284Z,69.36
2023-04-15T11:46:01.417Z,69.79
2023-04-15T11:48:38.243Z,68.70
2023-04-15T11:51:10.324Z,66.95
2023-04-15T11:53:44.395Z,65.15
2023-04-15T11:56:26.278Z,65.78
2023-04-15T11:59:03.060Z,67.55
2023-04-15T12:01:41.625Z,63.77
2023-04-15T12:04:25.903Z,62.20
2023-04-15T12:06:57.336Z,62.99
2023-04-15T12:09:29.980Z,62.85
2023-04-15T12:12:02.400Z,62.80
2023-04-15T12:14:37.539Z,61.87
2023-04-15T12:17:10.797Z,61.83
2023-04-15T12:19:51.190Z,62.96
2023-04-15T12:22:24.958Z,61.98
2023-04-15T12:24:58.859Z,61.35
2023-04-15T12:27:31.324Z,61.10
2023-04-15T12:30:16.203Z,58.85
2023-04-15T12:32:49.320Z,59.63
2023-04-15T12:35:23.753Z,60.81
2023-04-15T12:37:54.165Z,58.51
2023-04-15T12:40:25.521Z,58.80
2023-04-15T12:42:59.274Z,57.14
2023-04-15T12:45:31.191Z,55.79
2023-04-15T12:48:02.750Z,56.62
2023-04-15T12:50:33.993Z,58.25
2023-04-15T12:53:07.458Z,59.41
2023-04-15T12:55:37.698Z,58.79
2023-04-15T12:58:08.831Z,59.89
2023-04-15T13:00:43.660Z,57.75
2023-04-15T13:03:13.908Z,56.90
2023-04-15T13:05:47.005Z,54.30
2023-04-15T13:08:18.691Z,54.71
2023-04-15T13:10:51.028Z,54.52
2023-04-15T13:13:21.998Z,57.06
2023-04-15T13:15:53.586Z,58.47
2023-04-15T13:18:25.821Z,60.01
2023-04-15T13:20:58.685Z,59.28
2023-04-15T13:23:31.251Z,57.50
2023-04-15T13:26:01.575Z,57.28
2023-04-15T13:28:31.889Z,58.29
2023-04-15T13:31:03.586Z,58.65
2023-04-15T13:33:34.340Z,57.53
2023-04-15T13:36:05.344Z,58.84
2023-04-15T13:38:37.239Z,60.93
2023-04-15T13:41:23.366Z,61.03
2023-04-15T13:43:59.920Z,61.35
2023-04-15T13:46:30.118Z,61.58
2023-04-15T13:49:00.400Z,61.55
2023-04-15T13:51:32.151Z,59.34
2023-04-15T13:54:04.605Z,59.13
2023-04-15T13:56:35.532Z,58.45
2023-04-15T13:59:06.541Z,58.33
2023-04-15T14:01:37.508Z,59.72
2023-04-15T14:04:12.602Z,58.28
2023-04-15T14:06:43.934Z,59.15
2023-04-15T14:09:15.282Z,57.66
2023-04-15T14:11:45.718Z,56.44
2023-04-15T14:14:16.297Z,57.95
2023-04-15T14:16:47.845Z,57.64
2023-04-15T14:19:21.345Z,58.09
2023-04-15T14:21:54.462Z,58.66
2023-04-15T14:24:25.789Z,58.85
2023-04-15T14:26:57.216Z,62.02
2023-04-15T14:29:27.641Z,61.98
2023-04-15T14:32:06.206Z,60.47
2023-04-15T14:34:43.243Z,61.56
2023-04-15T14:37:13.765Z,62.78
2023-04-15T14:39:45.048Z,63.06
2023-04-15T14:42:16.446Z,63.48
2023-04-15T14:44:47.519Z,64.86
2023-04-15T14:47:19.663Z,65.85
2023-04-15T14:49:52.283Z,67.03
2023-04-15T14:52:23.655Z,67.63
2023-04-15T14:54:53.825Z,67.70
2023-04-15T14:57:24.090Z,68.27
2023-04-15T14:59:58.888Z,69.36
2023-04-15T15:02:38.387Z,69.27
2023-04-15T15:05:14.504Z,69.17
2023-04-15T15:07:45.470Z,69.94
2023-04-15T15:10:15.936Z,69.90
2023-04-15T15:13:11.479Z,70.19
2023-04-15T15:15:43.133Z,67.07
2023-04-15T15:18:14.783Z,65.76
2023-04-15T15:20:46.308Z,64.70
2023-04-15T15:23:17.896Z,65.73
2023-04-15T15:25:49.288Z,66.03
2023-04-15T15:28:20.263Z,67.04
2023-04-15T15:30:51.738Z,67.01
2023-04-15T15:33:23.161Z,67.60
2023-04-15T15:35:55.448Z,67.92
2023-04-15T15:38:33.130Z,67.93
2023-04-15T15:41:03.643Z,69.48
2023-04-15T15:43:34.878Z,68.77
2023-04-15T15:46:07.352Z,67.96
2023-04-15T15:48:41.488Z,69.05
2023-04-15T15:51:14.485Z,70.29
2023-04-15T15:53:46.161Z,70.03
2023-04-15T15:56:17.629Z,71.65
2023-04-15T15:58:57.431Z,71.42
2023-04-15T16:01:28.123Z,72.05
2023-04-15T16:03:58.588Z,72.08
2023-04-15T16:06:31.453Z,71.42
2023-04-15T16:09:03.910Z,71.53
2023-04-15T16:11:35.830Z,72.41
2023-04-15T16:14:09.468Z,71.91
2023-04-15T16:16:41.910Z,72.26
2023-04-15T16:19:13.055Z,72.19
2023-04-15T16:21:44.757Z,73.07
2023-04-15T16:24:16.745Z,72.71
2023-04-15T16:26:47.158Z,73.13
2023-04-15T16:29:18.433Z,72.92
2023-04-15T16:31:51.192Z,72.18
2023-04-15T16:34:23.359Z,71.42
2023-04-15T16:36:57.164Z,71.90
2023-04-15T16:39:30.601Z,71.83
2023-04-15T16:42:04.737Z,69.86
2023-04-15T16:44:36.294Z,70.25
2023-04-15T16:47:07.965Z,66.29
2023-04-15T16:49:40.975Z,67.63
2023-04-15T16:52:27.068Z,67.91
2023-04-15T16:54:59.847Z,69.00
2023-04-15T16:57:36.581Z,69.47
2023-04-15T17:00:24.415Z,70.54
2023-04-15T17:02:57.557Z,71.43
2023-04-15T17:05:31.348Z,71.30
2023-04-15T17:08:05.938Z,71.51
2023-04-15T17:10:40.021Z,71.81
2023-04-15T17:13:15.112Z,72.10
2023-04-15T17:15:45.856Z,70.56
2023-04-15T17:18:17.666Z,71.20
2023-04-15T17:20:48.926Z,72.27
2023-04-15T17:23:25.413Z,71.83
2023-04-15T17:25:56.955Z,71.68
2023-04-15T17:28:37.603Z,71.81
2023-04-15T17:31:09.084Z,71.42
2023-04-15T17:33:58.789Z,71.08
2023-04-15T17:36:35.799Z,71.79
2023-04-15T17:39:08.038Z,71.71
2023-04-15T17:41:38.847Z,71.02
2023-04-15T17:44:13.160Z,71.65
2023-04-15T17:46:45.095Z,72.02
2023-04-15T17:49:16.477Z,72.03
2023-04-15T17:51:49.475Z,71.54
2023-04-15T17:54:20.543Z,72.03
2023-04-15T17:56:52.163Z,73.00
2023-04-15T17:59:23.209Z,72.81
2023-04-15T18:01:53.797Z,73.28
2023-04-15T18:04:27.008Z,72.73
2023-04-15T18:07:01.745Z,72.80
2023-04-15T18:09:35.595Z,72.83
2023-04-15T18:12:08.947Z,72.82
2023-04-15T18:14:44.114Z,72.79
2023-04-15T18:17:19.230Z,71.84
2023-04-15T18:19:50.033Z,72.61
2023-04-15T18:22:22.912Z,72.40
2023-04-15T18:24:56.145Z,72.79
2023-04-15T18:27:27.452Z,73.61
2023-04-15T18:29:59.466Z,74.10
2023-04-15T18:32:38.267Z,73.12
2023-04-15T18:35:23.922Z,74.62
2023-04-15T18:38:00.409Z,74.79
2023-04-15T18:40:42.411Z,75.37
2023-04-15T18:43:14.043Z,75.15
2023-04-15T18:45:50.388Z,75.94
2023-04-15T18:48:21.760Z,75.53
2023-04-15T18:50:56.320Z,75.30
2023-04-15T18:53:27.123Z,75.35
2023-04-15T18:56:06.644Z,74.77
2023-04-15T18:59:27.792Z,74.47
2023-04-15T19:01:43.094Z,74.73
2023-04-15T19:04:13.864Z,74.04
2023-04-15T19:06:48.988Z,73.69
2023-04-15T19:09:23.344Z,74.35
2023-04-15T19:11:59.840Z,72.41
2023-04-15T19:14:32.358Z,72.21
2023-04-15T19:17:04.091Z,71.92
2023-04-15T19:19:41.396Z,71.50
2023-04-15T19:22:13.883Z,71.81
2023-04-15T19:24:45.430Z,71.13
2023-04-15T19:27:17.427Z,72.29
2023-04-15T19:29:50.106Z,72.14
2023-04-15T19:32:21.283Z,72.53
2023-04-15T19:34:54.479Z,71.83
2023-04-15T19:37:25.043Z,72.29
2023-04-15T19:39:58.523Z,72.75
2023-04-15T19:42:34.336Z,72.40
2023-04-15T19:45:14.676Z,73.14
2023-04-15T19:47:45.211Z,72.09
2023-04-15T19:50:17.027Z,72.51
2023-04-15T19:52:48.573Z,72.70
2023-04-15T19:55:20.251Z,73.03
2023-04-15T19:57:51.631Z,73.66
2023-04-15T20:00:23.359Z,74.37
2023-04-15T20:02:54.828Z,74.51
2023-04-15T20:05:33.120Z,74.83
2023-04-15T20:08:10.896Z,75.40
2023-04-15T20:10:42.363Z,75.44
2023-04-15T20:13:13.509Z,75.75
2023-04-15T20:15:44.607Z,76.08
2023-04-15T20:18:16.473Z,76.54
2023-04-15T20:20:46.784Z,76.69
2023-04-15T20:23:17.668Z,76.89
2023-04-15T20:25:47.781Z,76.88
2023-04-15T20:28:20.289Z,77.29
2023-04-15T20:30:51.496Z,77.37
2023-04-15T20:33:23.590Z,77.27
2023-04-15T20:35:55.750Z,77.33
2023-04-15T20:38:28.002Z,77.42
2023-04-15T20:40:59.520Z,77.60
2023-04-15T20:43:30.786Z,77.87
2023-04-15T20:46:06.993Z,78.03
2023-04-15T20:48:56.232Z,78.23
2023-04-15T20:51:27.189Z,78.49
2023-04-15T20:54:00.745Z,78.74
2023-04-15T20:56:36.848Z,78.34
2023-04-15T20:59:07.832Z,78.55
2023-04-15T21:01:39.002Z,78.93
2023-04-15T21:04:10.756Z,78.71
2023-04-15T21:06:41.758Z,78.70
2023-04-15T21:09:12.851Z,77.98
2023-04-15T21:12:00.607Z,78.11
2023-04-15T21:14:32.482Z,77.84
2023-04-15T21:17:11.450Z,77.96
2023-04-15T21:19:45.257Z,77.55
2023-04-15T21:22:15.498Z,77.68
2023-04-15T21:24:46.315Z,77.95
2023-04-15T21:27:17.469Z,78.21
2023-04-15T21:29:48.226Z,78.49
2023-04-15T21:32:19.757Z,79.14
2023-04-15T21:34:55.117Z,79.13
2023-04-15T21:37:26.601Z,79.72
2023-04-15T21:40:07.186Z,80.01
2023-04-15T21:42:38.676Z,80.44
2023-04-15T21:45:10.205Z,80.85
2023-04-15T21:47:56.839Z,81.14
2023-04-15T21:50:31.991Z,81.36
2023-04-15T21:53:03.260Z,81.13
2023-04-15T21:55:34.485Z,81.71
2023-04-15T21:58:06.409Z,81.83
2023-04-15T22:00:38.055Z,81.41
2023-04-15T22:03:10.199Z,81.40
2023-04-15T22:05:41.979Z,81.59
2023-04-15T22:08:12.849Z,81.75
2023-04-15T22:10:42.908Z,81.91
2023-04-15T22:13:14.916Z,81.64
2023-04-15T22:15:45.295Z,81.64
2023-04-15T22:18:15.534Z,81.73
2023-04-15T22:20:46.968Z,81.33
2023-04-15T22:23:18.660Z,81.19
2023-04-15T22:25:49.962Z,81.14
2023-04-15T22:28:21.509Z,81.49
2023-04-15T22:30:51.720Z,81.36
2023-04-15T22:33:22.270Z,81.24
2023-04-15T22:35:53.038Z,81.34
2023-04-15T22:38:25.504Z,81.68
2023-04-15T22:40:56.406Z,81.99
2023-04-15T22:43:27.614Z,82.12
2023-04-15T22:45:58.957Z,82.13
2023-04-15T22:48:30.301Z,82.18
2023-04-15T22:51:01.300Z,82.12
2023-04-15T22:53:32.182Z,82.39
2023-04-15T22:56:03.089Z,82.26
2023-04-15T22:58:34.235Z,82.45
2023-04-15T23:01:05.244Z,82.24
2023-04-15T23:03:55.564Z,82.31
2023-04-15T23:06:25.792Z,82.23
2023-04-15T23:08:56.785Z,82.22
2023-04-15T23:11:27.283Z,82.60
2023-04-15T23:13:59.216Z,82.43
2023-04-15T23:16:31.235Z,82.44
2023-04-15T23:19:02.329Z,81.55
2023-04-15T23:21:32.907Z,81.39
2023-04-15T23:24:04.924Z,81.76
2023-04-15T23:26:36.123Z,81.64
2023-04-15T23:29:07.213Z,81.87
2023-04-15T23:31:37.986Z,80.89
2023-04-15T23:34:09.085Z,81.22
2023-04-15T23:36:39.929Z,81.30
2023-04-15T23:39:10.536Z,81.50
2023-04-15T23:41:42.048Z,81.97
2023-04-15T23:44:13.537Z,82.36
2023-04-15T23:46:44.776Z,82.53
2023-04-15T23:49:17.359Z,82.76
2023-04-15T23:51:49.744Z,83.02
2023-04-15T23:54:20.677Z,83.49
2023-04-15T23:56:53.084Z,83.27
2023-04-15T23:59:23.308Z,83.35
